This is the latest recevied weather packets stored in our database for station/object F4JUT-10. If no packets are shown the sender has not sent any weather packets the latest 10 day(s).
| Time | Temp. | Humidity | Pressure | Rain* | Wind** | Luminosity | Snow |
|---|---|---|---|---|---|---|---|
| 1777564966 | 24.44° C | 33% | 1021.2 hPa | - | - | - | - |
| 1777564066 | 24.44° C | 33% | 1021.2 hPa | - | - | - | - |
| 1777563166 | 25° C | 31% | 1021.1 hPa | - | - | - | - |
| 1777562266 | 25° C | 30% | 1020.9 hPa | - | - | - | - |
| 1777561366 | 26.11° C | 29% | 1020.7 hPa | - | - | - | - |
| 1777560466 | 27.22° C | 27% | 1020.8 hPa | - | - | - | - |
| 1777559566 | 27.78° C | 26% | 1020.7 hPa | - | - | - | - |
| 1777558666 | 28.33° C | 26% | 1020.7 hPa | - | - | - | - |
| 1777557766 | 29.44° C | 23% | 1020.8 hPa | - | - | - | - |
| 1777556866 | 30° C | 21% | 1020.8 hPa | - | - | - | - |
| 1777555965 | 31.11° C | 21% | 1020.8 hPa | - | - | - | - |
| 1777555065 | 32.22° C | 20% | 1020.8 hPa | - | - | - | - |
| 1777554165 | 31.11° C | 22% | 1020.9 hPa | - | - | - | - |
| 1777553265 | 32.22° C | 23% | 1020.9 hPa | - | - | - | - |
| 1777552365 | 32.78° C | 22% | 1021 hPa | - | - | - | - |
| 1777551465 | 33.89° C | 21% | 1021 hPa | - | - | - | - |
| 1777550565 | 33.89° C | 19% | 1020.9 hPa | - | - | - | - |
| 1777549665 | 35° C | 19% | 1020.9 hPa | - | - | - | - |
| 1777548765 | 35.56° C | 21% | 1021 hPa | - | - | - | - |
| 1777547865 | 33.89° C | 23% | 1021.2 hPa | - | - | - | - |
| 1777546964 | 32.78° C | 26% | 1021.3 hPa | - | - | - | - |
| 1777546064 | 30.56° C | 29% | 1021.3 hPa | - | - | - | - |
| 1777545164 | 30° C | 29% | 1021.4 hPa | - | - | - | - |
| 1777544263 | 30° C | 29% | 1021.4 hPa | - | - | - | - |
| 1777543363 | 30° C | 29% | 1021.5 hPa | - | - | - | - |
* Rain since midnight (hover to see other rain measurements)
** Current wind speed in m/s (hover to see current wind gust speed)